sensor_id;sensor_type;location;lat;lon;timestamp;temperature;humidity
32173;DHT22;18679;45.190;5.722;2023-04-29T00:02:27;21.00;61.50
32173;DHT22;18679;45.190;5.722;2023-04-29T00:05:28;21.00;61.90
32173;DHT22;18679;45.190;5.722;2023-04-29T00:08:29;21.00;62.20
32173;DHT22;18679;45.190;5.722;2023-04-29T00:11:30;21.00;62.20
32173;DHT22;18679;45.190;5.722;2023-04-29T00:14:31;21.00;62.30
32173;DHT22;18679;45.190;5.722;2023-04-29T00:17:32;21.00;62.20
32173;DHT22;18679;45.190;5.722;2023-04-29T00:20:32;21.00;62.30
32173;DHT22;18679;45.190;5.722;2023-04-29T00:23:34;20.90;62.40
32173;DHT22;18679;45.190;5.722;2023-04-29T00:26:35;20.90;62.50
32173;DHT22;18679;45.190;5.722;2023-04-29T00:29:36;20.80;62.50
32173;DHT22;18679;45.190;5.722;2023-04-29T00:32:38;20.80;62.60
32173;DHT22;18679;45.190;5.722;2023-04-29T00:35:39;20.80;62.50
32173;DHT22;18679;45.190;5.722;2023-04-29T00:38:39;20.90;62.40
32173;DHT22;18679;45.190;5.722;2023-04-29T00:41:41;20.80;62.10
32173;DHT22;18679;45.190;5.722;2023-04-29T00:44:42;20.90;62.10
32173;DHT22;18679;45.190;5.722;2023-04-29T00:47:43;20.80;61.50
32173;DHT22;18679;45.190;5.722;2023-04-29T00:50:44;20.90;61.00
32173;DHT22;18679;45.190;5.722;2023-04-29T00:53:45;20.90;60.40
32173;DHT22;18679;45.190;5.722;2023-04-29T00:56:46;21.00;59.90
32173;DHT22;18679;45.190;5.722;2023-04-29T00:59:48;21.00;59.60
32173;DHT22;18679;45.190;5.722;2023-04-29T01:02:50;21.10;59.40
32173;DHT22;18679;45.190;5.722;2023-04-29T01:06:02;21.10;59.10
32173;DHT22;18679;45.190;5.722;2023-04-29T01:19:05;21.20;58.90
32173;DHT22;18679;45.190;5.722;2023-04-29T01:22:12;21.30;59.00
32173;DHT22;18679;45.190;5.722;2023-04-29T01:25:18;21.30;59.20
32173;DHT22;18679;45.190;5.722;2023-04-29T01:29:19;21.30;59.50
32173;DHT22;18679;45.190;5.722;2023-04-29T01:42:55;21.30;60.10
32173;DHT22;18679;45.190;5.722;2023-04-29T01:46:02;21.30;60.20
32173;DHT22;18679;45.190;5.722;2023-04-29T01:49:06;21.30;60.20
32173;DHT22;18679;45.190;5.722;2023-04-29T01:52:07;21.40;60.30
32173;DHT22;18679;45.190;5.722;2023-04-29T01:55:10;21.40;60.40
32173;DHT22;18679;45.190;5.722;2023-04-29T01:58:31;21.40;60.40
32173;DHT22;18679;45.190;5.722;2023-04-29T02:02:04;21.40;60.30
32173;DHT22;18679;45.190;5.722;2023-04-29T02:05:07;21.40;60.20
32173;DHT22;18679;45.190;5.722;2023-04-29T02:08:13;21.40;60.10
32173;DHT22;18679;45.190;5.722;2023-04-29T02:11:17;21.40;60.00
32173;DHT22;18679;45.190;5.722;2023-04-29T02:14:18;21.40;59.90
32173;DHT22;18679;45.190;5.722;2023-04-29T02:17:19;21.40;59.80
32173;DHT22;18679;45.190;5.722;2023-04-29T02:20:20;21.40;59.80
32173;DHT22;18679;45.190;5.722;2023-04-29T02:23:21;21.30;59.90
32173;DHT22;18679;45.190;5.722;2023-04-29T02:26:22;21.30;60.00
32173;DHT22;18679;45.190;5.722;2023-04-29T02:29:24;21.20;60.00
32173;DHT22;18679;45.190;5.722;2023-04-29T02:32:28;21.30;60.10
32173;DHT22;18679;45.190;5.722;2023-04-29T02:35:29;21.20;60.10
32173;DHT22;18679;45.190;5.722;2023-04-29T02:38:29;21.20;60.30
32173;DHT22;18679;45.190;5.722;2023-04-29T02:41:30;21.20;60.50
32173;DHT22;18679;45.190;5.722;2023-04-29T02:44:31;21.20;60.60
32173;DHT22;18679;45.190;5.722;2023-04-29T02:47:33;21.20;60.50
32173;DHT22;18679;45.190;5.722;2023-04-29T02:50:34;21.20;60.40
32173;DHT22;18679;45.190;5.722;2023-04-29T02:53:35;21.20;60.40
32173;DHT22;18679;45.190;5.722;2023-04-29T02:56:36;21.20;60.40
32173;DHT22;18679;45.190;5.722;2023-04-29T02:59:37;21.20;60.30
32173;DHT22;18679;45.190;5.722;2023-04-29T03:02:38;21.20;61.20
32173;DHT22;18679;45.190;5.722;2023-04-29T03:05:40;21.10;60.70
32173;DHT22;18679;45.190;5.722;2023-04-29T03:08:41;20.90;61.50
32173;DHT22;18679;45.190;5.722;2023-04-29T03:11:42;20.80;62.10
32173;DHT22;18679;45.190;5.722;2023-04-29T03:14:43;20.60;62.80
32173;DHT22;18679;45.190;5.722;2023-04-29T03:17:44;20.40;63.00
32173;DHT22;18679;45.190;5.722;2023-04-29T03:20:47;20.10;63.30
32173;DHT22;18679;45.190;5.722;2023-04-29T03:23:49;19.90;63.80
32173;DHT22;18679;45.190;5.722;2023-04-29T03:26:57;19.80;64.10
32173;DHT22;18679;45.190;5.722;2023-04-29T03:29:59;19.80;64.40
32173;DHT22;18679;45.190;5.722;2023-04-29T03:33:00;19.70;64.50
32173;DHT22;18679;45.190;5.722;2023-04-29T03:36:03;19.70;64.60
32173;DHT22;18679;45.190;5.722;2023-04-29T03:39:12;19.70;64.60
32173;DHT22;18679;45.190;5.722;2023-04-29T03:42:12;19.70;64.60
32173;DHT22;18679;45.190;5.722;2023-04-29T03:45:13;19.70;65.00
32173;DHT22;18679;45.190;5.722;2023-04-29T03:48:14;19.60;65.50
32173;DHT22;18679;45.190;5.722;2023-04-29T03:51:15;19.50;65.90
32173;DHT22;18679;45.190;5.722;2023-04-29T03:54:17;19.30;66.40
32173;DHT22;18679;45.190;5.722;2023-04-29T03:57:18;19.20;66.90
32173;DHT22;18679;45.190;5.722;2023-04-29T04:00:19;19.10;66.90
32173;DHT22;18679;45.190;5.722;2023-04-29T04:03:26;19.10;67.10
32173;DHT22;18679;45.190;5.722;2023-04-29T04:06:30;19.00;67.10
32173;DHT22;18679;45.190;5.722;2023-04-29T04:09:31;19.00;67.10
32173;DHT22;18679;45.190;5.722;2023-04-29T04:12:33;19.10;67.20
32173;DHT22;18679;45.190;5.722;2023-04-29T04:15:34;19.00;67.40
32173;DHT22;18679;45.190;5.722;2023-04-29T04:18:38;19.00;67.80
32173;DHT22;18679;45.190;5.722;2023-04-29T04:21:40;18.90;67.90
32173;DHT22;18679;45.190;5.722;2023-04-29T04:24:43;18.90;67.90
32173;DHT22;18679;45.190;5.722;2023-04-29T04:27:44;19.00;67.80
32173;DHT22;18679;45.190;5.722;2023-04-29T04:30:53;19.00;67.80
32173;DHT22;18679;45.190;5.722;2023-04-29T04:33:54;19.00;67.90
32173;DHT22;18679;45.190;5.722;2023-04-29T04:36:56;19.10;67.80
32173;DHT22;18679;45.190;5.722;2023-04-29T04:39:57;19.10;68.10
32173;DHT22;18679;45.190;5.722;2023-04-29T04:42:59;19.10;67.80
32173;DHT22;18679;45.190;5.722;2023-04-29T04:46:09;19.10;67.70
32173;DHT22;18679;45.190;5.722;2023-04-29T04:49:12;19.20;67.70
32173;DHT22;18679;45.190;5.722;2023-04-29T04:52:20;19.20;67.50
32173;DHT22;18679;45.190;5.722;2023-04-29T04:55:27;19.30;67.40
32173;DHT22;18679;45.190;5.722;2023-04-29T04:58:28;19.30;67.20
32173;DHT22;18679;45.190;5.722;2023-04-29T05:01:31;19.40;67.20
32173;DHT22;18679;45.190;5.722;2023-04-29T05:04:32;19.40;67.20
32173;DHT22;18679;45.190;5.722;2023-04-29T05:07:33;19.50;67.10
32173;DHT22;18679;45.190;5.722;2023-04-29T05:10:39;19.50;67.10
32173;DHT22;18679;45.190;5.722;2023-04-29T05:13:41;19.50;67.10
32173;DHT22;18679;45.190;5.722;2023-04-29T05:16:42;19.60;67.20
32173;DHT22;18679;45.190;5.722;2023-04-29T05:19:44;19.60;67.40
32173;DHT22;18679;45.190;5.722;2023-04-29T05:22:45;19.60;67.80
32173;DHT22;18679;45.190;5.722;2023-04-29T05:25:47;19.60;67.90
32173;DHT22;18679;45.190;5.722;2023-04-29T05:28:50;19.60;68.00
32173;DHT22;18679;45.190;5.722;2023-04-29T05:31:52;19.70;68.00
32173;DHT22;18679;45.190;5.722;2023-04-29T05:34:53;19.70;67.90
32173;DHT22;18679;45.190;5.722;2023-04-29T05:37:54;19.70;67.90
32173;DHT22;18679;45.190;5.722;2023-04-29T05:41:04;19.70;67.90
32173;DHT22;18679;45.190;5.722;2023-04-29T05:44:08;19.70;67.90
32173;DHT22;18679;45.190;5.722;2023-04-29T05:47:09;19.80;67.70
32173;DHT22;18679;45.190;5.722;2023-04-29T05:50:11;19.80;67.60
32173;DHT22;18679;45.190;5.722;2023-04-29T05:53:13;19.80;67.50
32173;DHT22;18679;45.190;5.722;2023-04-29T05:56:15;19.90;67.30
32173;DHT22;18679;45.190;5.722;2023-04-29T05:59:16;19.90;67.20
32173;DHT22;18679;45.190;5.722;2023-04-29T06:02:24;19.90;67.10
32173;DHT22;18679;45.190;5.722;2023-04-29T06:05:25;20.00;67.00
32173;DHT22;18679;45.190;5.722;2023-04-29T06:08:46;20.10;66.90
32173;DHT22;18679;45.190;5.722;2023-04-29T06:11:51;20.10;66.60
32173;DHT22;18679;45.190;5.722;2023-04-29T06:14:54;20.20;66.60
32173;DHT22;18679;45.190;5.722;2023-04-29T06:17:55;20.30;66.50
32173;DHT22;18679;45.190;5.722;2023-04-29T06:20:57;20.30;66.30
32173;DHT22;18679;45.190;5.722;2023-04-29T06:23:58;20.40;66.10
32173;DHT22;18679;45.190;5.722;2023-04-29T06:26:59;20.50;65.90
32173;DHT22;18679;45.190;5.722;2023-04-29T06:30:00;20.60;65.70
32173;DHT22;18679;45.190;5.722;2023-04-29T06:33:01;20.70;65.60
32173;DHT22;18679;45.190;5.722;2023-04-29T06:36:03;20.80;65.40
32173;DHT22;18679;45.190;5.722;2023-04-29T06:39:22;20.80;65.10
32173;DHT22;18679;45.190;5.722;2023-04-29T06:42:49;20.90;64.90
32173;DHT22;18679;45.190;5.722;2023-04-29T06:46:09;20.90;64.80
32173;DHT22;18679;45.190;5.722;2023-04-29T06:49:17;21.00;64.60
32173;DHT22;18679;45.190;5.722;2023-04-29T06:52:18;21.10;64.60
32173;DHT22;18679;45.190;5.722;2023-04-29T06:55:19;21.10;64.20
32173;DHT22;18679;45.190;5.722;2023-04-29T06:58:21;21.10;64.10
32173;DHT22;18679;45.190;5.722;2023-04-29T07:01:22;21.20;64.10
32173;DHT22;18679;45.190;5.722;2023-04-29T07:04:24;21.10;64.00
32173;DHT22;18679;45.190;5.722;2023-04-29T07:07:25;21.10;64.20
32173;DHT22;18679;45.190;5.722;2023-04-29T07:10:27;21.00;64.30
32173;DHT22;18679;45.190;5.722;2023-04-29T07:13:29;21.00;64.60
32173;DHT22;18679;45.190;5.722;2023-04-29T07:16:30;21.00;64.70
32173;DHT22;18679;45.190;5.722;2023-04-29T07:19:31;21.00;64.70
32173;DHT22;18679;45.190;5.722;2023-04-29T07:22:32;20.90;64.70
32173;DHT22;18679;45.190;5.722;2023-04-29T07:25:33;20.90;64.70
32173;DHT22;18679;45.190;5.722;2023-04-29T07:28:34;21.00;64.80
32173;DHT22;18679;45.190;5.722;2023-04-29T07:31:35;21.00;64.70
32173;DHT22;18679;45.190;5.722;2023-04-29T07:34:37;21.00;64.60
32173;DHT22;18679;45.190;5.722;2023-04-29T07:37:38;21.10;64.50
32173;DHT22;18679;45.190;5.722;2023-04-29T07:40:40;21.20;64.30
32173;DHT22;18679;45.190;5.722;2023-04-29T07:43:42;21.30;64.10
32173;DHT22;18679;45.190;5.722;2023-04-29T07:46:43;21.40;63.80
32173;DHT22;18679;45.190;5.722;2023-04-29T07:49:44;21.40;63.80
32173;DHT22;18679;45.190;5.722;2023-04-29T07:52:45;21.50;63.70
32173;DHT22;18679;45.190;5.722;2023-04-29T07:55:46;21.50;63.60
32173;DHT22;18679;45.190;5.722;2023-04-29T07:58:47;21.40;63.30
32173;DHT22;18679;45.190;5.722;2023-04-29T08:01:48;21.40;63.30
32173;DHT22;18679;45.190;5.722;2023-04-29T08:04:49;21.40;63.40
32173;DHT22;18679;45.190;5.722;2023-04-29T08:07:51;21.30;63.30
32173;DHT22;18679;45.190;5.722;2023-04-29T08:10:52;21.30;63.50
32173;DHT22;18679;45.190;5.722;2023-04-29T08:13:53;21.40;63.70
32173;DHT22;18679;45.190;5.722;2023-04-29T08:16:56;21.50;63.60
32173;DHT22;18679;45.190;5.722;2023-04-29T08:19:57;21.60;63.40
32173;DHT22;18679;45.190;5.722;2023-04-29T08:22:58;21.80;63.30
32173;DHT22;18679;45.190;5.722;2023-04-29T08:26:00;22.00;62.90
32173;DHT22;18679;45.190;5.722;2023-04-29T08:29:02;22.10;62.50
32173;DHT22;18679;45.190;5.722;2023-04-29T08:32:04;22.30;62.20
32173;DHT22;18679;45.190;5.722;2023-04-29T08:35:05;22.40;61.80
32173;DHT22;18679;45.190;5.722;2023-04-29T08:38:07;22.60;61.30
32173;DHT22;18679;45.190;5.722;2023-04-29T08:41:09;22.90;60.90
32173;DHT22;18679;45.190;5.722;2023-04-29T08:44:10;23.20;60.10
32173;DHT22;18679;45.190;5.722;2023-04-29T08:47:11;23.50;59.50
32173;DHT22;18679;45.190;5.722;2023-04-29T08:50:13;23.80;58.90
32173;DHT22;18679;45.190;5.722;2023-04-29T08:53:14;23.90;58.20
32173;DHT22;18679;45.190;5.722;2023-04-29T08:56:16;24.00;57.90
32173;DHT22;18679;45.190;5.722;2023-04-29T08:59:21;24.10;57.80
32173;DHT22;18679;45.190;5.722;2023-04-29T09:02:24;24.10;57.90
32173;DHT22;18679;45.190;5.722;2023-04-29T09:05:25;24.20;57.70
32173;DHT22;18679;45.190;5.722;2023-04-29T09:08:27;24.30;57.50
32173;DHT22;18679;45.190;5.722;2023-04-29T09:11:29;24.40;57.30
32173;DHT22;18679;45.190;5.722;2023-04-29T09:14:30;24.60;57.00
32173;DHT22;18679;45.190;5.722;2023-04-29T09:17:42;24.90;56.40
32173;DHT22;18679;45.190;5.722;2023-04-29T09:20:43;25.10;55.40
32173;DHT22;18679;45.190;5.722;2023-04-29T09:23:45;25.20;54.80
32173;DHT22;18679;45.190;5.722;2023-04-29T09:26:46;25.30;54.20
32173;DHT22;18679;45.190;5.722;2023-04-29T09:30:00;25.30;54.00
32173;DHT22;18679;45.190;5.722;2023-04-29T09:33:06;25.30;54.10
32173;DHT22;18679;45.190;5.722;2023-04-29T09:36:08;25.20;54.30
32173;DHT22;18679;45.190;5.722;2023-04-29T09:39:11;25.10;54.50
32173;DHT22;18679;45.190;5.722;2023-04-29T09:42:12;25.10;54.60
32173;DHT22;18679;45.190;5.722;2023-04-29T09:45:34;25.00;54.60
32173;DHT22;18679;45.190;5.722;2023-04-29T09:48:36;25.00;54.80
32173;DHT22;18679;45.190;5.722;2023-04-29T09:51:57;25.00;54.70
32173;DHT22;18679;45.190;5.722;2023-04-29T09:55:04;25.00;54.70
32173;DHT22;18679;45.190;5.722;2023-04-29T09:58:06;24.90;54.80
32173;DHT22;18679;45.190;5.722;2023-04-29T10:01:07;24.80;54.80
32173;DHT22;18679;45.190;5.722;2023-04-29T10:04:10;24.60;54.90
32173;DHT22;18679;45.190;5.722;2023-04-29T10:07:16;24.50;55.10
32173;DHT22;18679;45.190;5.722;2023-04-29T10:10:17;24.50;55.30
32173;DHT22;18679;45.190;5.722;2023-04-29T10:13:20;24.30;55.50
32173;DHT22;18679;45.190;5.722;2023-04-29T10:19:39;24.30;55.70
32173;DHT22;18679;45.190;5.722;2023-04-29T10:22:48;24.10;55.80
32173;DHT22;18679;45.190;5.722;2023-04-29T10:25:52;24.10;55.90
32173;DHT22;18679;45.190;5.722;2023-04-29T10:28:55;24.10;56.00
32173;DHT22;18679;45.190;5.722;2023-04-29T10:31:56;24.00;56.00
32173;DHT22;18679;45.190;5.722;2023-04-29T10:34:58;24.00;56.20
32173;DHT22;18679;45.190;5.722;2023-04-29T10:38:00;23.90;56.40
32173;DHT22;18679;45.190;5.722;2023-04-29T10:41:14;23.90;56.40
32173;DHT22;18679;45.190;5.722;2023-04-29T10:44:16;23.90;56.40
32173;DHT22;18679;45.190;5.722;2023-04-29T10:47:18;23.90;56.40
32173;DHT22;18679;45.190;5.722;2023-04-29T10:50:19;23.90;57.00
32173;DHT22;18679;45.190;5.722;2023-04-29T10:53:21;24.00;56.50
32173;DHT22;18679;45.190;5.722;2023-04-29T10:56:34;24.20;56.20
32173;DHT22;18679;45.190;5.722;2023-04-29T11:02:37;24.30;55.80
32173;DHT22;18679;45.190;5.722;2023-04-29T11:05:38;24.50;55.70
32173;DHT22;18679;45.190;5.722;2023-04-29T11:08:39;24.40;55.40
32173;DHT22;18679;45.190;5.722;2023-04-29T11:12:00;24.40;54.90
32173;DHT22;18679;45.190;5.722;2023-04-29T11:15:07;24.50;54.50
32173;DHT22;18679;45.190;5.722;2023-04-29T11:18:10;24.60;54.20
32173;DHT22;18679;45.190;5.722;2023-04-29T11:21:11;24.80;54.00
32173;DHT22;18679;45.190;5.722;2023-04-29T11:24:13;25.00;53.80
32173;DHT22;18679;45.190;5.722;2023-04-29T11:27:18;25.30;53.60
32173;DHT22;18679;45.190;5.722;2023-04-29T11:30:20;25.70;53.20
32173;DHT22;18679;45.190;5.722;2023-04-29T11:33:22;26.00;52.60
32173;DHT22;18679;45.190;5.722;2023-04-29T11:36:24;26.30;52.00
32173;DHT22;18679;45.190;5.722;2023-04-29T11:39:26;26.60;51.40
32173;DHT22;18679;45.190;5.722;2023-04-29T11:42:27;26.80;51.00
32173;DHT22;18679;45.190;5.722;2023-04-29T11:45:28;26.90;50.80
32173;DHT22;18679;45.190;5.722;2023-04-29T11:48:29;27.00;50.60
32173;DHT22;18679;45.190;5.722;2023-04-29T11:51:30;27.10;50.30
32173;DHT22;18679;45.190;5.722;2023-04-29T11:54:32;27.10;50.10
32173;DHT22;18679;45.190;5.722;2023-04-29T11:57:33;27.10;50.00
32173;DHT22;18679;45.190;5.722;2023-04-29T12:00:34;27.10;49.70
32173;DHT22;18679;45.190;5.722;2023-04-29T12:03:35;27.10;49.40
32173;DHT22;18679;45.190;5.722;2023-04-29T12:06:36;26.90;48.90
32173;DHT22;18679;45.190;5.722;2023-04-29T12:09:44;27.10;48.80
32173;DHT22;18679;45.190;5.722;2023-04-29T12:12:45;27.10;48.60
32173;DHT22;18679;45.190;5.722;2023-04-29T12:15:48;27.10;48.50
32173;DHT22;18679;45.190;5.722;2023-04-29T12:18:51;27.10;48.60
32173;DHT22;18679;45.190;5.722;2023-04-29T12:21:52;27.20;48.50
32173;DHT22;18679;45.190;5.722;2023-04-29T12:24:53;27.20;48.30
32173;DHT22;18679;45.190;5.722;2023-04-29T12:28:00;27.30;48.00
32173;DHT22;18679;45.190;5.722;2023-04-29T12:31:01;27.20;47.70
32173;DHT22;18679;45.190;5.722;2023-04-29T12:34:03;27.20;47.60
32173;DHT22;18679;45.190;5.722;2023-04-29T12:37:08;27.10;47.40
32173;DHT22;18679;45.190;5.722;2023-04-29T12:40:14;27.30;47.30
32173;DHT22;18679;45.190;5.722;2023-04-29T12:43:16;27.70;46.60
32173;DHT22;18679;45.190;5.722;2023-04-29T12:46:20;28.50;45.50
32173;DHT22;18679;45.190;5.722;2023-04-29T12:49:23;29.00;44.60
32173;DHT22;18679;45.190;5.722;2023-04-29T12:52:24;29.10;44.00
32173;DHT22;18679;45.190;5.722;2023-04-29T12:55:25;28.90;44.20
32173;DHT22;18679;45.190;5.722;2023-04-29T12:58:29;28.70;44.30
32173;DHT22;18679;45.190;5.722;2023-04-29T13:01:30;28.70;44.70
32173;DHT22;18679;45.190;5.722;2023-04-29T13:04:32;28.60;44.90
32173;DHT22;18679;45.190;5.722;2023-04-29T13:07:33;28.60;44.80
32173;DHT22;18679;45.190;5.722;2023-04-29T13:10:34;28.70;44.80
32173;DHT22;18679;45.190;5.722;2023-04-29T13:13:35;28.80;44.70
32173;DHT22;18679;45.190;5.722;2023-04-29T13:16:36;28.90;44.50
32173;DHT22;18679;45.190;5.722;2023-04-29T13:19:37;29.00;44.20
32173;DHT22;18679;45.190;5.722;2023-04-29T13:22:38;29.00;44.20
32173;DHT22;18679;45.190;5.722;2023-04-29T13:25:39;29.00;44.20
32173;DHT22;18679;45.190;5.722;2023-04-29T13:28:40;28.90;44.80
32173;DHT22;18679;45.190;5.722;2023-04-29T13:31:41;29.10;44.00
32173;DHT22;18679;45.190;5.722;2023-04-29T13:34:43;29.40;42.90
32173;DHT22;18679;45.190;5.722;2023-04-29T13:37:44;29.60;42.10
32173;DHT22;18679;45.190;5.722;2023-04-29T13:40:46;29.80;41.70
32173;DHT22;18679;45.190;5.722;2023-04-29T13:43:47;30.20;40.80
32173;DHT22;18679;45.190;5.722;2023-04-29T13:46:48;30.20;40.30
32173;DHT22;18679;45.190;5.722;2023-04-29T13:49:51;30.00;40.30
32173;DHT22;18679;45.190;5.722;2023-04-29T13:52:52;29.70;40.60
32173;DHT22;18679;45.190;5.722;2023-04-29T13:55:53;29.60;40.60
32173;DHT22;18679;45.190;5.722;2023-04-29T13:58:54;29.50;40.50
32173;DHT22;18679;45.190;5.722;2023-04-29T14:01:55;29.30;40.50
32173;DHT22;18679;45.190;5.722;2023-04-29T14:04:57;29.10;40.90
32173;DHT22;18679;45.190;5.722;2023-04-29T14:07:58;28.70;41.20
32173;DHT22;18679;45.190;5.722;2023-04-29T14:10:59;28.40;41.80
32173;DHT22;18679;45.190;5.722;2023-04-29T14:14:00;28.20;42.40
32173;DHT22;18679;45.190;5.722;2023-04-29T14:17:01;28.00;42.80
32173;DHT22;18679;45.190;5.722;2023-04-29T14:20:03;27.90;43.10
32173;DHT22;18679;45.190;5.722;2023-04-29T14:23:04;27.80;42.90
32173;DHT22;18679;45.190;5.722;2023-04-29T14:26:05;27.60;43.20
32173;DHT22;18679;45.190;5.722;2023-04-29T14:29:07;27.60;43.40
32173;DHT22;18679;45.190;5.722;2023-04-29T14:32:08;27.50;43.50
32173;DHT22;18679;45.190;5.722;2023-04-29T14:35:09;27.50;43.70
32173;DHT22;18679;45.190;5.722;2023-04-29T14:38:10;27.40;43.80
32173;DHT22;18679;45.190;5.722;2023-04-29T14:41:11;27.30;44.00
32173;DHT22;18679;45.190;5.722;2023-04-29T14:44:13;27.20;44.20
32173;DHT22;18679;45.190;5.722;2023-04-29T14:47:13;27.10;44.90
32173;DHT22;18679;45.190;5.722;2023-04-29T14:50:15;27.20;44.20
32173;DHT22;18679;45.190;5.722;2023-04-29T14:53:16;27.30;44.10
32173;DHT22;18679;45.190;5.722;2023-04-29T14:56:17;27.50;44.30
32173;DHT22;18679;45.190;5.722;2023-04-29T14:59:18;27.60;43.40
32173;DHT22;18679;45.190;5.722;2023-04-29T15:02:19;27.60;43.10
32173;DHT22;18679;45.190;5.722;2023-04-29T15:05:20;27.60;43.10
32173;DHT22;18679;45.190;5.722;2023-04-29T15:08:21;27.60;43.10
32173;DHT22;18679;45.190;5.722;2023-04-29T15:11:22;27.50;43.20
32173;DHT22;18679;45.190;5.722;2023-04-29T15:14:23;27.30;43.40
32173;DHT22;18679;45.190;5.722;2023-04-29T15:17:24;27.20;43.60
32173;DHT22;18679;45.190;5.722;2023-04-29T15:20:28;27.00;43.90
32173;DHT22;18679;45.190;5.722;2023-04-29T15:23:30;26.90;44.40
32173;DHT22;18679;45.190;5.722;2023-04-29T15:26:31;26.80;44.70
32173;DHT22;18679;45.190;5.722;2023-04-29T15:29:32;26.80;45.00
32173;DHT22;18679;45.190;5.722;2023-04-29T15:32:36;26.80;45.20
32173;DHT22;18679;45.190;5.722;2023-04-29T15:35:38;26.80;45.30
32173;DHT22;18679;45.190;5.722;2023-04-29T15:38:39;26.70;45.50
32173;DHT22;18679;45.190;5.722;2023-04-29T15:41:41;26.70;45.60
32173;DHT22;18679;45.190;5.722;2023-04-29T15:44:42;26.70;45.70
32173;DHT22;18679;45.190;5.722;2023-04-29T15:47:43;26.60;45.80
32173;DHT22;18679;45.190;5.722;2023-04-29T15:50:44;26.70;45.90
32173;DHT22;18679;45.190;5.722;2023-04-29T15:53:45;26.50;45.80
32173;DHT22;18679;45.190;5.722;2023-04-29T15:56:48;26.40;46.00
32173;DHT22;18679;45.190;5.722;2023-04-29T15:59:49;26.30;46.60
32173;DHT22;18679;45.190;5.722;2023-04-29T16:02:52;26.10;47.00
32173;DHT22;18679;45.190;5.722;2023-04-29T16:05:53;25.90;47.40
32173;DHT22;18679;45.190;5.722;2023-04-29T16:08:54;25.70;47.70
32173;DHT22;18679;45.190;5.722;2023-04-29T16:11:56;25.60;48.20
32173;DHT22;18679;45.190;5.722;2023-04-29T16:14:57;25.50;48.50
32173;DHT22;18679;45.190;5.722;2023-04-29T16:17:58;25.40;48.40
32173;DHT22;18679;45.190;5.722;2023-04-29T16:21:00;25.30;48.30
32173;DHT22;18679;45.190;5.722;2023-04-29T16:24:02;25.10;48.20
32173;DHT22;18679;45.190;5.722;2023-04-29T16:27:03;25.00;48.40
32173;DHT22;18679;45.190;5.722;2023-04-29T16:30:04;24.90;49.20
32173;DHT22;18679;45.190;5.722;2023-04-29T16:33:05;24.80;48.80
32173;DHT22;18679;45.190;5.722;2023-04-29T16:36:08;24.60;49.10
32173;DHT22;18679;45.190;5.722;2023-04-29T16:39:08;24.50;49.70
32173;DHT22;18679;45.190;5.722;2023-04-29T16:42:10;24.30;50.40
32173;DHT22;18679;45.190;5.722;2023-04-29T16:45:11;24.10;50.90
32173;DHT22;18679;45.190;5.722;2023-04-29T16:48:15;24.00;51.30
32173;DHT22;18679;45.190;5.722;2023-04-29T16:51:16;23.90;52.00
32173;DHT22;18679;45.190;5.722;2023-04-29T16:54:18;23.80;52.10
32173;DHT22;18679;45.190;5.722;2023-04-29T16:57:19;23.80;52.30
32173;DHT22;18679;45.190;5.722;2023-04-29T17:00:21;23.80;52.40
32173;DHT22;18679;45.190;5.722;2023-04-29T17:03:22;23.80;52.50
32173;DHT22;18679;45.190;5.722;2023-04-29T17:06:23;23.80;52.40
32173;DHT22;18679;45.190;5.722;2023-04-29T17:09:25;23.80;52.50
32173;DHT22;18679;45.190;5.722;2023-04-29T17:12:26;23.80;52.60
32173;DHT22;18679;45.190;5.722;2023-04-29T17:15:27;23.80;52.50
32173;DHT22;18679;45.190;5.722;2023-04-29T17:18:28;23.90;52.70
32173;DHT22;18679;45.190;5.722;2023-04-29T17:21:29;24.00;52.70
32173;DHT22;18679;45.190;5.722;2023-04-29T17:24:31;24.00;52.70
32173;DHT22;18679;45.190;5.722;2023-04-29T17:27:33;24.00;52.50
32173;DHT22;18679;45.190;5.722;2023-04-29T17:30:34;24.00;52.50
32173;DHT22;18679;45.190;5.722;2023-04-29T17:33:35;24.00;52.70
32173;DHT22;18679;45.190;5.722;2023-04-29T17:36:39;23.90;52.70
